Time;durP1;ratioP1;P1;durP2;ratioP2;P2;SDS_P1;SDS_P2;PMS_P1;PMS_P2;Temp;Humidity;BMP_temperature;BMP_pressure;BME280_temperature;BME280_humidity;BME280_pressure;Samples;Min_cycle;Max_cycle;Signal;HPM_P1;HPM_P2
2023/03/06 00:00:53;;;;;;;;;;;;;;;22.08;24.67;97170.59;5014523;28;1901;-80
2023/03/06 00:03:19;;;;;;;;;;;;;;;22.21;24.58;97174.09;5014291;28;893;-80
2023/03/06 00:05:44;;;;;;;;;;;;;;;22.17;24.75;97169.81;5001315;28;968;-80
2023/03/06 00:08:10;;;;;;;;;;;;;;;21.89;24.68;97174.59;5017687;28;1097;-80
2023/03/06 00:10:35;;;;;;;;;;;;;;;21.61;25.44;97160.34;5017921;28;927;-80
2023/03/06 00:13:02;;;;;;;;;;;;;;;21.80;24.84;97176.16;5017517;28;1104;-80
2023/03/06 00:15:28;;;;;;;;;;;;;;;21.84;25.09;97167.50;5023999;28;1265;-80
2023/03/06 00:17:53;;;;;;;;;;;;;;;22.03;24.46;97171.19;5057426;28;957;-80
2023/03/06 00:20:19;;;;;;;;;;;;;;;22.11;24.33;97175.31;5056840;28;1361;-79
2023/03/06 00:22:45;;;;;;;;;;;;;;;22.02;24.62;97166.75;5057129;28;1909;-80
2023/03/06 00:25:11;;;;;;;;;;;;;;;21.94;24.50;97171.16;5057251;28;1006;-80
2023/03/06 00:27:37;;;;;;;;;;;;;;;21.75;24.81;97171.09;5040595;28;1319;-80
2023/03/06 00:30:03;;;;;;;;;;;;;;;21.55;24.99;97173.53;5040609;28;1152;-79
2023/03/06 00:32:28;;;;;;;;;;;;;;;21.99;24.55;97174.16;5057109;28;934;-80
2023/03/06 00:34:54;;;;;;;;;;;;;;;22.07;24.02;97169.78;5052786;28;1998;-80
2023/03/06 00:37:20;;;;;;;;;;;;;;;22.25;24.03;97173.94;5074575;28;921;-79
2023/03/06 00:39:46;;;;;;;;;;;;;;;22.03;24.21;97176.88;5074965;28;913;-80
2023/03/06 00:42:11;;;;;;;;;;;;;;;21.71;24.31;97176.13;5074440;28;1977;-80
2023/03/06 00:44:37;;;;;;;;;;;;;;;21.67;24.38;97169.81;5040383;28;1393;-80
2023/03/06 00:47:02;;;;;;;;;;;;;;;21.97;24.30;97173.06;5058147;28;868;-80
2023/03/06 00:49:29;;;;;;;;;;;;;;;22.21;23.74;97170.47;5058218;28;1140;-80
2023/03/06 00:51:55;;;;;;;;;;;;;;;22.36;23.40;97169.41;5057917;28;945;-80
2023/03/06 00:54:20;;;;;;;;;;;;;;;21.90;23.84;97170.50;5057976;28;859;-80
2023/03/06 00:56:46;;;;;;;;;;;;;;;21.85;24.08;97169.88;5058246;28;1095;-79
2023/03/06 00:59:12;;;;;;;;;;;;;;;21.89;24.26;97169.72;5075138;28;798;-80
2023/03/06 01:01:37;;;;;;;;;;;;;;;21.84;23.87;97173.97;5057911;28;1922;-80
2023/03/06 01:04:03;;;;;;;;;;;;;;;22.14;23.79;97167.94;5074517;28;1227;-79
2023/03/06 01:06:28;;;;;;;;;;;;;;;22.07;23.61;97169.78;5057984;28;1125;-80
2023/03/06 01:08:54;;;;;;;;;;;;;;;21.95;23.52;97173.53;5074662;28;1198;-79
2023/03/06 01:11:20;;;;;;;;;;;;;;;22.15;23.42;97181.63;5058072;28;1128;-80
2023/03/06 01:13:45;;;;;;;;;;;;;;;21.85;23.71;97181.19;5074552;28;1262;-80
2023/03/06 01:16:12;;;;;;;;;;;;;;;22.16;23.43;97171.88;5073102;28;939;-80
2023/03/06 01:18:38;;;;;;;;;;;;;;;22.22;23.21;97184.16;5039891;28;1045;-79
2023/03/06 01:21:03;;;;;;;;;;;;;;;22.13;23.52;97178.50;5040651;28;1918;-79
2023/03/06 01:23:29;;;;;;;;;;;;;;;22.30;23.32;97174.13;5039565;28;1226;-80
2023/03/06 01:25:55;;;;;;;;;;;;;;;21.83;23.51;97183.72;5040044;28;1235;-79
2023/03/06 01:28:20;;;;;;;;;;;;;;;21.59;23.87;97177.00;5040169;28;1169;-80
2023/03/06 01:30:46;;;;;;;;;;;;;;;21.68;23.81;97171.38;5052639;28;937;-79
2023/03/06 01:33:11;;;;;;;;;;;;;;;22.15;23.32;97166.69;5036623;28;937;-80
2023/03/06 01:35:37;;;;;;;;;;;;;;;22.02;23.35;97173.25;5019976;28;1139;-80
2023/03/06 01:38:04;;;;;;;;;;;;;;;22.12;23.11;97164.78;4993772;28;1222;-80
2023/03/06 01:40:30;;;;;;;;;;;;;;;21.79;23.42;97171.75;4961577;28;1136;-80
2023/03/06 01:42:55;;;;;;;;;;;;;;;21.72;23.69;97172.03;4977604;28;1902;-80
2023/03/06 01:45:21;;;;;;;;;;;;;;;21.71;23.51;97180.97;4961141;28;1053;-80
2023/03/06 01:47:46;;;;;;;;;;;;;;;21.96;23.37;97186.44;4993654;28;962;-80
2023/03/06 01:50:12;;;;;;;;;;;;;;;22.21;22.95;97191.09;4977259;28;881;-80
2023/03/06 01:52:39;;;;;;;;;;;;;;;22.02;23.10;97190.25;4973676;28;1025;-80
2023/03/06 01:55:07;;;;;;;;;;;;;;;21.87;23.51;97199.78;4942192;28;1351;-80
2023/03/06 01:57:40;;;;;;;;;;;;;;;21.79;23.09;97194.41;4942175;28;1220;-80
2023/03/06 02:00:24;;;;;;;;;;;;;;;21.81;23.55;97202.41;4961966;28;1227;-80
2023/03/06 02:02:50;;;;;;;;;;;;;;;20.16;23.02;96902.56;4977140;28;1991;-80
2023/03/06 02:05:16;;;;;;;;;;;;;;;22.14;22.89;97216.91;4961886;28;918;-80
2023/03/06 02:07:42;;;;;;;;;;;;;;;21.99;22.77;97213.81;4961239;28;1083;-80
2023/03/06 02:10:10;;;;;;;;;;;;;;;21.76;23.28;97212.34;4999173;28;974;-80
2023/03/06 02:12:36;;;;;;;;;;;;;;;21.66;23.24;97212.72;4984028;28;1298;-80
2023/03/06 02:15:02;;;;;;;;;;;;;;;21.89;23.04;97215.03;4989872;28;1338;-80
2023/03/06 02:17:28;;;;;;;;;;;;;;;22.03;22.77;97213.69;5039736;28;1179;-80
2023/03/06 02:20:10;;;;;;;;;;;;;;;22.04;22.84;97218.09;5022850;28;993;-80
2023/03/06 02:22:36;;;;;;;;;;;;;;;21.96;22.91;97202.63;5042312;28;1914;-80
2023/03/06 02:25:22;;;;;;;;;;;;;;;21.84;22.88;97213.59;5062929;28;947;-79
2023/03/06 02:27:48;;;;;;;;;;;;;;;21.63;23.33;97208.78;5096326;28;967;-80
2023/03/06 02:30:13;;;;;;;;;;;;;;;22.05;22.58;97211.94;5062610;28;1194;-80
2023/03/06 02:32:39;;;;;;;;;;;;;;;22.30;22.49;97213.78;5062624;28;1478;-80
2023/03/06 02:35:05;;;;;;;;;;;;;;;22.26;22.35;97230.16;5039290;28;1138;-80
2023/03/06 02:37:31;;;;;;;;;;;;;;;21.95;22.61;97223.72;5022950;28;936;-80
2023/03/06 02:40:05;;;;;;;;;;;;;;;21.60;23.04;97221.03;5038742;28;1158;-79
2023/03/06 02:42:30;;;;;;;;;;;;;;;21.50;23.23;97227.91;5038844;28;2071;-80
2023/03/06 02:44:56;;;;;;;;;;;;;;;21.88;22.90;97235.34;5038999;28;1182;-79
2023/03/06 02:47:22;;;;;;;;;;;;;;;22.02;22.55;97232.72;5039327;28;1137;-80
2023/03/06 02:49:48;;;;;;;;;;;;;;;22.33;22.09;97227.03;5045140;28;1176;-80
2023/03/06 02:52:13;;;;;;;;;;;;;;;21.92;22.43;97230.34;5022520;28;1189;-79
2023/03/06 02:54:39;;;;;;;;;;;;;;;21.94;22.55;97225.75;5039033;28;925;-80
2023/03/06 02:57:06;;;;;;;;;;;;;;;21.49;23.38;97226.31;5055872;28;1174;-80
2023/03/06 02:59:32;;;;;;;;;;;;;;;21.90;22.71;97230.00;5039075;28;1331;-80
2023/03/06 03:01:59;;;;;;;;;;;;;;;22.28;22.47;97235.38;5022373;28;1963;-80
2023/03/06 03:04:25;;;;;;;;;;;;;;;22.34;21.99;97239.16;5055565;28;900;-79
2023/03/06 03:06:51;;;;;;;;;;;;;;;21.98;22.37;97236.97;5057076;28;1277;-80
2023/03/06 03:09:17;;;;;;;;;;;;;;;21.95;22.62;97240.72;5089255;28;1241;-80
2023/03/06 03:11:43;;;;;;;;;;;;;;;21.63;23.06;97236.31;5057304;28;850;-79
2023/03/06 03:14:08;;;;;;;;;;;;;;;22.25;22.43;97248.41;5056548;28;1216;-80
2023/03/06 03:16:35;;;;;;;;;;;;;;;22.16;22.31;97242.72;5057644;28;1025;-80
2023/03/06 03:19:00;;;;;;;;;;;;;;;22.10;22.63;97247.38;5073230;28;881;-79
2023/03/06 03:21:26;;;;;;;;;;;;;;;21.93;22.70;97235.53;5056186;28;1905;-80
2023/03/06 03:23:53;;;;;;;;;;;;;;;21.85;22.48;97243.50;5055636;28;1248;-80
2023/03/06 03:26:19;;;;;;;;;;;;;;;21.83;22.81;97246.03;5088542;28;889;-80
2023/03/06 03:28:55;;;;;;;;;;;;;;;21.95;22.57;97252.03;5088090;28;1057;-80
2023/03/06 03:31:21;;;;;;;;;;;;;;;22.07;22.56;97253.97;5056261;28;945;-80
2023/03/06 03:33:48;;;;;;;;;;;;;;;22.38;22.21;97245.44;5056274;28;1321;-80
2023/03/06 03:36:15;;;;;;;;;;;;;;;21.76;22.94;97246.31;5072522;28;1085;-80
2023/03/06 03:38:44;;;;;;;;;;;;;;;21.70;23.06;97248.16;5056423;28;1195;-80
2023/03/06 03:41:10;;;;;;;;;;;;;;;21.58;23.53;97246.19;5089247;28;1906;-80
2023/03/06 03:43:36;;;;;;;;;;;;;;;22.01;22.77;97247.34;5089237;28;1186;-78
2023/03/06 03:46:01;;;;;;;;;;;;;;;22.03;22.48;97236.34;5089728;28;1272;-80
2023/03/06 03:48:27;;;;;;;;;;;;;;;22.35;22.11;97252.84;5088961;28;1096;-80
2023/03/06 03:50:53;;;;;;;;;;;;;;;21.77;22.84;97253.53;5071830;28;1210;-80
2023/03/06 03:53:22;;;;;;;;;;;;;;;21.63;23.29;97254.09;5072163;28;1238;-80
2023/03/06 03:55:48;;;;;;;;;;;;;;;21.79;22.89;97250.25;5088938;28;1199;-80
2023/03/06 03:58:16;;;;;;;;;;;;;;;22.27;22.37;97251.56;5055630;28;1264;-80
2023/03/06 04:00:42;;;;;;;;;;;;;;;22.33;22.40;97260.25;5055058;28;1208;-80
2023/03/06 04:03:12;;;;;;;;;;;;;;;22.07;22.20;97259.63;5055416;28;1237;-80
2023/03/06 04:05:41;;;;;;;;;;;;;;;22.01;22.75;97267.16;5088343;28;1086;-80
2023/03/06 04:08:08;;;;;;;;;;;;;;;21.74;23.05;97271.44;5055052;28;1148;-79
2023/03/06 04:10:38;;;;;;;;;;;;;;;22.05;22.60;97268.63;5088659;28;1058;-80
2023/03/06 04:13:05;;;;;;;;;;;;;;;22.54;21.96;97269.91;5055458;28;1141;-80
2023/03/06 04:15:31;;;;;;;;;;;;;;;22.26;22.16;97269.81;5077282;28;1238;-80
2023/03/06 04:17:59;;;;;;;;;;;;;;;21.83;22.60;97263.00;5060889;28;1209;-80
2023/03/06 04:20:27;;;;;;;;;;;;;;;21.55;23.33;97261.25;5060604;28;1130;-80
2023/03/06 04:22:53;;;;;;;;;;;;;;;21.54;23.23;97262.53;5057367;28;1910;-80
2023/03/06 04:25:20;;;;;;;;;;;;;;;22.20;22.57;97273.75;5057116;28;1179;-79
2023/03/06 04:27:46;;;;;;;;;;;;;;;22.33;21.94;97272.38;5073672;28;938;-80
2023/03/06 04:30:12;;;;;;;;;;;;;;;22.11;22.22;97277.31;5056941;28;1266;-80
2023/03/06 04:32:38;;;;;;;;;;;;;;;21.93;22.70;97280.06;5053709;28;1260;-80
2023/03/06 04:35:04;;;;;;;;;;;;;;;21.76;22.57;97280.28;5053680;28;1067;-79
2023/03/06 04:37:35;;;;;;;;;;;;;;;21.96;22.72;97276.28;5021114;28;1095;-79
2023/03/06 04:40:01;;;;;;;;;;;;;;;22.16;22.25;97279.53;5036542;28;1571;-80
2023/03/06 04:42:26;;;;;;;;;;;;;;;22.33;21.98;97283.72;5033114;28;1906;-80
2023/03/06 04:44:52;;;;;;;;;;;;;;;21.81;22.96;97287.38;5050071;28;1236;-79
2023/03/06 04:47:19;;;;;;;;;;;;;;;21.72;22.99;97282.47;5017001;28;998;-80
2023/03/06 04:49:44;;;;;;;;;;;;;;;21.78;22.74;97300.44;4997341;28;1234;-79
2023/03/06 04:52:10;;;;;;;;;;;;;;;21.79;22.93;97302.00;5033554;28;1031;-80
2023/03/06 04:54:35;;;;;;;;;;;;;;;22.32;22.14;97299.13;5033258;28;938;-80
2023/03/06 04:57:01;;;;;;;;;;;;;;;22.12;22.39;97306.44;5043231;28;1413;-80
2023/03/06 04:59:26;;;;;;;;;;;;;;;21.77;22.73;97296.03;5039070;28;1007;-80
2023/03/06 05:01:52;;;;;;;;;;;;;;;21.64;23.19;97300.19;5056571;28;1906;-79
2023/03/06 05:04:18;;;;;;;;;;;;;;;21.72;22.63;97295.84;5088777;28;934;-80
2023/03/06 05:06:43;;;;;;;;;;;;;;;21.95;22.73;97311.53;5076313;28;1118;-79
2023/03/06 05:09:09;;;;;;;;;;;;;;;22.06;22.58;97320.38;5076629;28;1512;-79
2023/03/06 05:11:34;;;;;;;;;;;;;;;21.99;22.56;97323.50;5092362;28;1458;-80
2023/03/06 05:14:00;;;;;;;;;;;;;;;21.75;22.74;97328.88;5059825;28;1551;-79
2023/03/06 05:16:25;;;;;;;;;;;;;;;21.72;22.93;97335.47;5059877;28;1224;-79
2023/03/06 05:18:51;;;;;;;;;;;;;;;21.84;22.79;97331.75;5076544;28;1209;-80
2023/03/06 05:21:17;;;;;;;;;;;;;;;22.27;22.28;97336.56;5033266;28;1973;-80
2023/03/06 05:23:42;;;;;;;;;;;;;;;21.97;22.75;97340.19;5035419;28;1338;-80
2023/03/06 05:26:08;;;;;;;;;;;;;;;21.91;22.64;97342.03;5052905;28;949;-81
2023/03/06 05:28:34;;;;;;;;;;;;;;;21.83;22.80;97344.34;5029662;28;1446;-80
2023/03/06 05:31:00;;;;;;;;;;;;;;;21.74;23.26;97339.41;5013225;28;1200;-80
2023/03/06 05:33:25;;;;;;;;;;;;;;;21.77;23.30;97338.50;5031026;28;976;-80
2023/03/06 05:35:51;;;;;;;;;;;;;;;22.11;22.99;97336.81;5017029;28;1276;-80
2023/03/06 05:38:16;;;;;;;;;;;;;;;22.12;22.58;97341.22;5016912;28;1186;-80
2023/03/06 05:40:42;;;;;;;;;;;;;;;21.72;23.37;97339.09;5026524;28;1443;-81
2023/03/06 05:43:09;;;;;;;;;;;;;;;21.56;23.76;97350.63;5023508;28;1977;-80
2023/03/06 05:45:34;;;;;;;;;;;;;;;21.83;23.18;97350.81;4997138;28;1014;-80
2023/03/06 05:48:00;;;;;;;;;;;;;;;22.12;22.81;97352.56;4980786;28;1559;-80
2023/03/06 05:50:25;;;;;;;;;;;;;;;22.07;23.00;97350.28;4997317;28;1670;-81
2023/03/06 05:52:51;;;;;;;;;;;;;;;21.84;23.09;97355.22;5024743;28;1016;-80
2023/03/06 05:55:19;;;;;;;;;;;;;;;21.68;23.24;97366.75;5036200;28;1222;-80
2023/03/06 05:57:45;;;;;;;;;;;;;;;21.78;23.27;97357.06;5019764;28;1154;-81
2023/03/06 06:00:12;;;;;;;;;;;;;;;22.05;22.78;97364.16;5049902;28;1598;-80
2023/03/06 06:02:38;;;;;;;;;;;;;;;22.22;22.82;97365.50;5059825;28;2351;-80
2023/03/06 06:05:03;;;;;;;;;;;;;;;22.05;22.68;97361.31;5042936;28;1048;-81
2023/03/06 06:07:29;;;;;;;;;;;;;;;21.78;23.36;97367.59;5039282;28;1169;-80
2023/03/06 06:09:54;;;;;;;;;;;;;;;21.82;23.23;97368.25;5039465;28;1084;-80
2023/03/06 06:12:20;;;;;;;;;;;;;;;21.64;23.40;97374.56;5039665;28;946;-80
2023/03/06 06:14:46;;;;;;;;;;;;;;;22.01;22.99;97371.97;5023320;28;1000;-80
2023/03/06 06:17:11;;;;;;;;;;;;;;;22.05;23.10;97381.16;5055864;28;971;-80
2023/03/06 06:19:37;;;;;;;;;;;;;;;21.78;23.46;97378.94;5056241;28;996;-80
2023/03/06 06:22:03;;;;;;;;;;;;;;;21.77;23.17;97375.31;5039174;28;1901;-80
2023/03/06 06:24:28;;;;;;;;;;;;;;;21.69;23.51;97382.47;5072711;28;1092;-80
2023/03/06 06:26:54;;;;;;;;;;;;;;;21.48;23.66;97384.03;5056293;28;1362;-80
2023/03/06 06:29:20;;;;;;;;;;;;;;;22.04;23.10;97385.22;5074052;28;1178;-81
2023/03/06 06:31:46;;;;;;;;;;;;;;;22.02;23.31;97384.88;5090644;28;961;-80
2023/03/06 06:34:11;;;;;;;;;;;;;;;22.02;23.09;97384.88;5073675;28;868;-80
2023/03/06 06:36:37;;;;;;;;;;;;;;;21.84;23.42;97385.56;5058301;28;876;-81
2023/03/06 06:39:03;;;;;;;;;;;;;;;21.49;24.07;97390.50;5077578;28;1485;-80
2023/03/06 06:41:28;;;;;;;;;;;;;;;21.92;23.30;97394.59;5080371;28;1906;-80
2023/03/06 06:43:54;;;;;;;;;;;;;;;22.19;23.09;97385.50;5089198;28;937;-80
2023/03/06 06:46:20;;;;;;;;;;;;;;;21.97;23.09;97388.34;5109964;28;1658;-80
2023/03/06 06:48:49;;;;;;;;;;;;;;;21.82;23.73;97397.38;5076179;28;978;-80
2023/03/06 06:51:15;;;;;;;;;;;;;;;21.58;23.96;97404.72;5110285;28;1025;-79
2023/03/06 06:53:41;;;;;;;;;;;;;;;21.79;23.62;97403.16;5110725;28;883;-81
2023/03/06 06:56:06;;;;;;;;;;;;;;;22.09;23.31;97398.81;5110303;28;947;-80
2023/03/06 06:58:32;;;;;;;;;;;;;;;22.19;23.30;97408.19;5095329;28;1580;-80
2023/03/06 07:01:03;;;;;;;;;;;;;;;22.34;22.91;97409.22;5055087;28;1917;-81
2023/03/06 07:03:29;;;;;;;;;;;;;;;22.07;23.25;97395.63;5038846;28;955;-80
2023/03/06 07:05:55;;;;;;;;;;;;;;;22.00;23.38;97395.91;5055904;28;1029;-80
2023/03/06 07:08:20;;;;;;;;;;;;;;;21.76;23.67;97398.41;5055164;28;1388;-80
2023/03/06 07:10:46;;;;;;;;;;;;;;;22.02;23.28;97394.22;5056987;28;1424;-80
2023/03/06 07:13:12;;;;;;;;;;;;;;;22.11;23.39;97393.47;5074814;28;937;-80
2023/03/06 07:15:37;;;;;;;;;;;;;;;22.00;23.24;97395.91;5075364;28;947;-81
2023/03/06 07:18:03;;;;;;;;;;;;;;;21.91;23.69;97405.13;5041723;28;1083;-80
2023/03/06 07:20:30;;;;;;;;;;;;;;;21.79;24.07;97401.13;5058405;28;1287;-80
2023/03/06 07:22:56;;;;;;;;;;;;;;;21.87;23.88;97407.31;5074869;28;1910;-80
2023/03/06 07:25:22;;;;;;;;;;;;;;;22.13;23.30;97396.66;5037912;28;1434;-79
2023/03/06 07:27:49;;;;;;;;;;;;;;;22.13;23.21;97395.88;5074506;28;1304;-81
2023/03/06 07:30:15;;;;;;;;;;;;;;;21.87;23.65;97398.81;5045783;28;1000;-80
2023/03/06 07:32:41;;;;;;;;;;;;;;;21.77;23.83;97403.63;5037828;28;1036;-79
2023/03/06 07:35:07;;;;;;;;;;;;;;;21.97;23.55;97402.50;5038083;28;975;-81
2023/03/06 07:37:32;;;;;;;;;;;;;;;22.19;23.17;97408.97;5024925;28;1162;-80
2023/03/06 07:39:58;;;;;;;;;;;;;;;22.11;23.30;97407.66;5092737;28;1189;-80
2023/03/06 07:42:23;;;;;;;;;;;;;;;21.97;23.51;97425.19;5057614;28;1902;-80
2023/03/06 07:44:58;;;;;;;;;;;;;;;21.73;23.89;97416.34;5070029;28;1218;-80
2023/03/06 07:47:23;;;;;;;;;;;;;;;21.81;23.81;97423.31;5072190;28;1282;-80
2023/03/06 07:49:49;;;;;;;;;;;;;;;22.23;23.26;97409.63;5056839;28;918;-81
2023/03/06 07:52:15;;;;;;;;;;;;;;;22.33;23.05;97414.09;5089117;28;857;-80
2023/03/06 07:54:41;;;;;;;;;;;;;;;22.03;23.60;97424.09;5055129;28;879;-80
2023/03/06 07:57:06;;;;;;;;;;;;;;;21.75;24.12;97419.47;5055086;28;1322;-81
2023/03/06 07:59:32;;;;;;;;;;;;;;;21.63;24.32;97418.28;5055473;28;1110;-80
2023/03/06 08:01:58;;;;;;;;;;;;;;;21.81;23.85;97424.13;5088640;28;1976;-80
2023/03/06 08:04:23;;;;;;;;;;;;;;;22.15;23.58;97425.31;5055392;28;1270;-80
2023/03/06 08:06:49;;;;;;;;;;;;;;;22.01;23.56;97426.59;5054912;28;1235;-80
2023/03/06 08:09:15;;;;;;;;;;;;;;;22.09;23.48;97421.47;5088368;28;1031;-80
2023/03/06 08:11:40;;;;;;;;;;;;;;;22.02;23.76;97427.38;5071507;28;1307;-80
2023/03/06 08:14:06;;;;;;;;;;;;;;;21.77;24.08;97417.78;5056024;28;928;-80
2023/03/06 08:16:31;;;;;;;;;;;;;;;21.86;23.89;97419.88;5055164;28;885;-80
2023/03/06 08:18:57;;;;;;;;;;;;;;;21.99;23.74;97431.16;5087589;28;986;-81
2023/03/06 08:21:23;;;;;;;;;;;;;;;22.22;23.48;97422.19;5071453;28;1959;-80
2023/03/06 08:23:49;;;;;;;;;;;;;;;21.87;23.81;97424.31;5054559;28;1223;-80
2023/03/06 08:26:15;;;;;;;;;;;;;;;21.75;23.99;97420.28;5056149;28;923;-81
2023/03/06 08:28:41;;;;;;;;;;;;;;;21.62;24.13;97427.25;5093571;28;959;-80
2023/03/06 08:31:15;;;;;;;;;;;;;;;21.63;24.24;97440.94;5076914;28;886;-80
2023/03/06 08:33:41;;;;;;;;;;;;;;;21.96;23.88;97430.03;5060193;28;1059;-80
2023/03/06 08:36:06;;;;;;;;;;;;;;;22.24;23.23;97431.03;5076983;28;1126;-81
2023/03/06 08:38:32;;;;;;;;;;;;;;;21.95;23.86;97434.13;5076585;28;1696;-81
2023/03/06 08:40:57;;;;;;;;;;;;;;;21.92;23.86;97434.25;5076852;28;1975;-81
2023/03/06 08:43:23;;;;;;;;;;;;;;;21.67;24.10;97435.16;5060070;28;919;-81
2023/03/06 08:45:52;;;;;;;;;;;;;;;21.99;23.96;97436.81;5060265;28;1288;-80
2023/03/06 08:48:17;;;;;;;;;;;;;;;22.05;23.89;97427.25;5060111;28;1244;-80
2023/03/06 08:50:43;;;;;;;;;;;;;;;22.33;23.54;97425.44;5070373;28;1523;-79
2023/03/06 08:53:08;;;;;;;;;;;;;;;22.00;23.74;97435.56;5103218;28;1632;-81
2023/03/06 08:55:37;;;;;;;;;;;;;;;21.78;24.08;97424.25;5052117;28;1622;-80
2023/03/06 08:58:03;;;;;;;;;;;;;;;21.71;24.26;97415.97;5057043;28;1250;-80
2023/03/06 09:00:29;;;;;;;;;;;;;;;22.06;23.52;97419.56;5040966;28;1495;-80
2023/03/06 09:02:54;;;;;;;;;;;;;;;22.14;23.52;97426.56;5050860;28;1906;-81
2023/03/06 09:05:20;;;;;;;;;;;;;;;22.26;23.72;97422.84;5072784;28;1041;-81
2023/03/06 09:07:46;;;;;;;;;;;;;;;21.75;23.98;97425.94;5073081;28;1111;-80
2023/03/06 09:10:12;;;;;;;;;;;;;;;21.46;24.42;97419.72;5077201;28;961;-81
2023/03/06 09:12:38;;;;;;;;;;;;;;;21.66;24.26;97422.22;5077199;28;922;-80
2023/03/06 09:15:04;;;;;;;;;;;;;;;22.06;23.82;97417.50;5077517;28;823;-80
2023/03/06 09:17:30;;;;;;;;;;;;;;;22.27;23.38;97413.09;5094322;28;1304;-80
2023/03/06 09:19:55;;;;;;;;;;;;;;;21.97;23.67;97416.69;5064120;28;1299;-80
2023/03/06 09:22:21;;;;;;;;;;;;;;;21.90;24.16;97425.41;5063551;28;1910;-80
2023/03/06 09:24:46;;;;;;;;;;;;;;;21.57;24.20;97414.47;5080590;28;958;-80
2023/03/06 09:27:12;;;;;;;;;;;;;;;21.96;23.82;97417.91;5096050;28;1122;-80
2023/03/06 09:29:37;;;;;;;;;;;;;;;22.17;23.88;97424.84;5100615;28;1299;-80
2023/03/06 09:32:03;;;;;;;;;;;;;;;21.89;23.74;97418.97;5084602;28;1396;-81
2023/03/06 09:34:29;;;;;;;;;;;;;;;21.84;23.93;97423.19;5080454;28;930;-81
2023/03/06 09:36:54;;;;;;;;;;;;;;;21.66;24.26;97434.38;5080395;28;1225;-80
2023/03/06 09:39:20;;;;;;;;;;;;;;;21.72;24.13;97414.75;5096995;28;1450;-80
2023/03/06 09:41:45;;;;;;;;;;;;;;;21.98;23.77;97421.88;5076952;28;1887;-81
2023/03/06 09:44:13;;;;;;;;;;;;;;;22.01;23.74;97423.75;5096537;28;993;-80
2023/03/06 09:46:41;;;;;;;;;;;;;;;21.92;23.64;97434.25;5080443;28;970;-80
2023/03/06 09:49:11;;;;;;;;;;;;;;;21.85;24.12;97441.75;5097105;28;934;-81
2023/03/06 09:51:47;;;;;;;;;;;;;;;21.71;24.32;97430.13;5079852;28;1479;-81
2023/03/06 09:54:13;;;;;;;;;;;;;;;21.57;24.62;97437.13;5063484;28;1140;-80
2023/03/06 09:56:48;;;;;;;;;;;;;;;22.17;23.81;97439.78;5080286;28;920;-81
2023/03/06 09:59:19;;;;;;;;;;;;;;;22.25;23.49;97429.00;5080433;28;979;-81
2023/03/06 10:01:49;;;;;;;;;;;;;;;21.88;23.81;97430.78;5063147;28;1906;-81
2023/03/06 10:04:27;;;;;;;;;;;;;;;21.87;24.18;97429.19;5079397;28;1588;-80
2023/03/06 10:06:54;;;;;;;;;;;;;;;21.61;24.27;97431.34;5105805;28;1717;-81
2023/03/06 10:09:26;;;;;;;;;;;;;;;21.61;24.54;97432.13;5099845;28;940;-81
2023/03/06 10:11:57;;;;;;;;;;;;;;;21.87;24.01;97432.03;5100033;28;928;-80
2023/03/06 10:14:28;;;;;;;;;;;;;;;22.01;23.82;97425.81;5093258;28;943;-80
2023/03/06 10:16:54;;;;;;;;;;;;;;;21.66;24.17;97433.56;5062452;28;2067;-81
2023/03/06 10:19:19;;;;;;;;;;;;;;;21.85;24.04;97436.09;5090099;28;920;-80
2023/03/06 10:21:51;;;;;;;;;;;;;;;21.76;24.05;97424.72;5068979;28;1909;-80
2023/03/06 10:24:24;;;;;;;;;;;;;;;21.88;23.91;97417.38;5096095;28;951;-81
2023/03/06 10:27:08;;;;;;;;;;;;;;;22.15;23.85;97425.31;5079485;28;906;-80
2023/03/06 10:29:33;;;;;;;;;;;;;;;22.01;23.70;97420.13;5096434;28;874;-81
2023/03/06 10:32:08;;;;;;;;;;;;;;;21.87;23.92;97432.03;5062679;28;1110;-80
2023/03/06 10:34:34;;;;;;;;;;;;;;;21.63;24.42;97426.00;5079059;28;980;-81
2023/03/06 10:37:01;;;;;;;;;;;;;;;21.96;24.12;97417.91;5074922;28;1383;-81
2023/03/06 10:39:28;;;;;;;;;;;;;;;22.14;23.71;97429.41;5075654;28;886;-80
2023/03/06 10:41:54;;;;;;;;;;;;;;;22.28;23.36;97426.03;5075422;28;1906;-80
2023/03/06 10:44:20;;;;;;;;;;;;;;;21.93;24.04;97421.69;5075501;28;944;-81
2023/03/06 10:46:47;;;;;;;;;;;;;;;21.79;24.03;97409.63;5075408;28;1362;-81
2023/03/06 10:49:22;;;;;;;;;;;;;;;21.45;24.58;97410.44;5075561;28;874;-80
2023/03/06 10:51:55;;;;;;;;;;;;;;;21.79;24.41;97414.47;5035920;28;1357;-80
2023/03/06 10:54:21;;;;;;;;;;;;;;;21.99;24.01;97417.00;5012597;28;1157;-81
2023/03/06 10:56:46;;;;;;;;;;;;;;;22.21;23.50;97403.63;5010676;28;1655;-81
2023/03/06 10:59:13;;;;;;;;;;;;;;;21.87;23.88;97403.69;4999330;28;1980;-80
2023/03/06 11:01:39;;;;;;;;;;;;;;;21.70;24.45;97403.88;4999007;28;1902;-80
2023/03/06 11:04:24;;;;;;;;;;;;;;;21.55;24.72;97397.13;5030404;28;910;-80
2023/03/06 11:07:04;;;;;;;;;;;;;;;21.92;23.93;97403.09;5015474;28;1114;-81
2023/03/06 11:09:32;;;;;;;;;;;;;;;21.96;23.82;97393.19;5054930;28;938;-79
2023/03/06 11:12:18;;;;;;;;;;;;;;;22.10;23.75;97400.38;5038835;28;1218;-80
2023/03/06 11:14:44;;;;;;;;;;;;;;;21.73;24.43;97397.31;5052458;28;1523;-80
2023/03/06 11:17:25;;;;;;;;;;;;;;;21.43;24.80;97392.34;5041536;28;1164;-81
2023/03/06 11:19:50;;;;;;;;;;;;;;;21.50;24.77;97398.53;5058353;28;1030;-81
2023/03/06 11:22:17;;;;;;;;;;;;;;;21.91;24.24;97395.84;5085709;28;1980;-81
2023/03/06 11:24:49;;;;;;;;;;;;;;;22.01;24.09;97381.28;5115445;28;947;-80
2023/03/06 11:27:21;;;;;;;;;;;;;;;22.23;23.84;97380.50;5115348;28;915;-80
2023/03/06 11:29:47;;;;;;;;;;;;;;;21.78;24.28;97388.22;5115482;28;952;-80
2023/03/06 11:32:25;;;;;;;;;;;;;;;21.75;24.18;97391.16;5097482;28;984;-80
2023/03/06 11:34:56;;;;;;;;;;;;;;;21.35;24.65;97385.34;5079454;28;870;-80
2023/03/06 11:37:31;;;;;;;;;;;;;;;21.82;24.23;97386.03;5072442;28;884;-81
2023/03/06 11:40:04;;;;;;;;;;;;;;;22.17;23.55;97382.34;5074261;28;1121;-81
2023/03/06 11:42:36;;;;;;;;;;;;;;;22.26;23.40;97385.22;5091130;28;1984;-80
2023/03/06 11:45:12;;;;;;;;;;;;;;;21.91;23.65;97371.13;5074256;28;972;-81
2023/03/06 11:48:00;;;;;;;;;;;;;;;21.59;24.44;97375.16;5074622;28;1227;-81
2023/03/06 11:50:35;;;;;;;;;;;;;;;21.71;24.46;97377.16;5057628;28;1422;-80
2023/03/06 11:53:02;;;;;;;;;;;;;;;22.18;23.75;97367.72;5054339;28;1459;-80
2023/03/06 11:55:32;;;;;;;;;;;;;;;22.28;23.48;97366.50;5021230;28;1037;-80
2023/03/06 11:58:10;;;;;;;;;;;;;;;22.22;23.77;97365.50;5037446;28;975;-80
2023/03/06 12:00:47;;;;;;;;;;;;;;;21.47;24.46;97371.16;5054031;28;989;-80
2023/03/06 12:03:15;;;;;;;;;;;;;;;21.30;24.83;97370.53;5056431;28;1906;-80
2023/03/06 12:05:50;;;;;;;;;;;;;;;21.61;24.73;97369.06;5073805;28;965;-80
2023/03/06 12:08:23;;;;;;;;;;;;;;;22.09;23.67;97370.47;5057224;28;1150;-80
2023/03/06 12:11:03;;;;;;;;;;;;;;;21.98;23.91;97375.75;5040795;28;1025;-80
2023/03/06 12:13:40;;;;;;;;;;;;;;;22.02;23.63;97376.38;5076865;28;1314;-80
2023/03/06 12:16:08;;;;;;;;;;;;;;;21.66;24.72;97377.75;5059154;28;1443;-80
2023/03/06 12:18:49;;;;;;;;;;;;;;;21.60;24.13;97371.06;5076934;28;1002;-79
2023/03/06 12:21:44;;;;;;;;;;;;;;;21.79;24.15;97381.28;5090436;28;1911;-80
2023/03/06 12:24:22;;;;;;;;;;;;;;;22.06;23.79;97371.38;4988039;28;1585;-80
2023/03/06 12:27:00;;;;;;;;;;;;;;;22.02;24.09;97370.72;4974823;28;2194;-80
2023/03/06 12:29:35;;;;;;;;;;;;;;;21.80;24.14;97371.53;4962443;28;1560;-80
2023/03/06 12:32:13;;;;;;;;;;;;;;;21.65;24.26;97367.66;4993681;28;1454;-80
2023/03/06 12:34:57;;;;;;;;;;;;;;;21.67;24.18;97378.53;4994048;28;1213;-80
2023/03/06 12:37:25;;;;;;;;;;;;;;;22.12;23.88;97360.28;4994216;28;968;-80
2023/03/06 12:40:00;;;;;;;;;;;;;;;22.12;23.64;97361.06;4993453;28;1999;-80
2023/03/06 12:42:28;;;;;;;;;;;;;;;21.96;23.74;97361.25;4967967;28;1907;-80
2023/03/06 12:44:56;;;;;;;;;;;;;;;21.57;24.41;97364.31;4993937;28;2000;-80
2023/03/06 12:47:26;;;;;;;;;;;;;;;21.63;24.20;97358.06;4997249;28;1728;-80
2023/03/06 12:49:53;;;;;;;;;;;;;;;22.01;23.79;97358.59;4992426;28;1582;-80
2023/03/06 12:52:25;;;;;;;;;;;;;;;22.01;23.60;97358.59;4993760;28;904;-80
2023/03/06 12:54:51;;;;;;;;;;;;;;;22.12;23.67;97352.56;4993991;28;981;-80
2023/03/06 12:57:17;;;;;;;;;;;;;;;21.62;24.25;97351.59;4994053;28;861;-81
2023/03/06 12:59:46;;;;;;;;;;;;;;;21.56;24.41;97345.75;5020845;28;1613;-80
2023/03/06 13:02:30;;;;;;;;;;;;;;;21.58;24.29;97356.59;5045146;28;1989;-80